Rechercher aéroport 
image banner adimage banner adimage banner ad
image banner ad

KABE - Lehigh Valley Intl

Situé à Allentown, United States

ICAO - ABE, IATA - ABE

Données fournies par Airmate  

Information générale

Coordonnées: N40°39'9" W75°26'25"
Élévation : 394 feet MSL.
Variation magnétique : -12° East
Voir autres Aéroports à Pennsylvania

Données opérationnelles

Special qualification required
Heure actuelle UTC:
Heure actuelle locale:
Météo
METAR: KABE 131914Z VRB03KT 10SM OVC028 23/17 A2990 RMK AO2 T02280167 $
TAF: KABE 131728Z 1318/1418 20005KT P6SM BKN040 FM140100 18004KT P6SM -SHRA OVC025 FM140700 15004KT 4SM -SHRA BR OVC015 FM141600 20004KT 6SM BR BKN010
Voir NOTAMs / SUP AIP / TFR affectant cet aéroport [VIEW]
Fréquences de communication: [VIEW]

Pistes:

Identifiant RWYQFULongueur (ft)Largeur (ft)SurfaceLDA (ft)
0651°7599150ASPH7599
24231°7599150ASPH7089
13123°5800150ASPH5800
31303°5800150ASPH5800

Coordonnées de l'aéroport

Adresse: Allentown United States

Autres services d'aviation

Écoles de pilotage

Ace Pilot Training

Ace Pilot Training
office@acepilot.com+1(610)264-1105

Vue satellite de KABE